createdAt,value
2022-08-10T00:01:54.292Z,99841.41
2022-08-10T00:04:22.960Z,99838.97
2022-08-10T00:06:54.685Z,99828.47
2022-08-10T00:09:22.586Z,99828.84
2022-08-10T00:11:49.147Z,99831.34
2022-08-10T00:14:16.064Z,99840.94
2022-08-10T00:16:42.642Z,99834.22
2022-08-10T00:19:09.844Z,99846.56
2022-08-10T00:21:36.898Z,99847.63
2022-08-10T00:24:03.684Z,99838.41
2022-08-10T00:27:58.610Z,99841.34
2022-08-10T00:29:16.692Z,99825.88
2022-08-10T00:31:58.816Z,99827.50
2022-08-10T00:34:30.745Z,99810.47
2022-08-10T00:36:57.978Z,99814.34
2022-08-10T00:39:25.960Z,99800.59
2022-08-10T00:42:02.366Z,99800.56
2022-08-10T00:44:39.580Z,99800.47
2022-08-10T00:47:07.618Z,99787.66
2022-08-10T00:49:54.143Z,99772.28
2022-08-10T00:52:21.062Z,99777.81
2022-08-10T00:54:47.961Z,99773.06
2022-08-10T00:57:18.345Z,99778.75
2022-08-10T00:59:58.710Z,99781.53
2022-08-10T01:02:27.053Z,99802.31
2022-08-10T01:04:59.388Z,99800.34
2022-08-10T01:07:56.689Z,99797.31
2022-08-10T01:10:31.858Z,99789.81
2022-08-10T01:13:09.788Z,99768.41
2022-08-10T01:15:46.538Z,99748.03
2022-08-10T01:18:27.818Z,99737.06
2022-08-10T01:21:29.537Z,99737.06
2022-08-10T01:24:45.072Z,99737.06
2022-08-10T01:27:30.242Z,99731.81
2022-08-10T01:30:10.162Z,99714.75
2022-08-10T01:33:03.452Z,99715.91
2022-08-10T01:35:35.714Z,99712.50
2022-08-10T01:38:32.337Z,99720.91
2022-08-10T01:41:21.480Z,99717.00
2022-08-10T01:44:08.514Z,99717.84
2022-08-10T01:46:37.566Z,99716.59
2022-08-10T01:49:08.355Z,99727.38
2022-08-10T01:51:44.488Z,99724.31
2022-08-10T01:54:18.498Z,99721.53
2022-08-10T01:56:48.702Z,99713.53
2022-08-10T01:59:24.009Z,99717.88
2022-08-10T02:01:53.603Z,99716.53
2022-08-10T02:04:21.500Z,99705.59
2022-08-10T02:06:51.092Z,99698.91
2022-08-10T02:09:40.485Z,99697.50
2022-08-10T02:12:09.689Z,99686.34
2022-08-10T02:14:50.823Z,99683.56
2022-08-10T02:17:59.990Z,99685.53
2022-08-10T02:20:20.137Z,99676.03
2022-08-10T02:22:52.168Z,99668.50
2022-08-10T02:25:42.360Z,99669.59
2022-08-10T02:28:09.348Z,99662.09
2022-08-10T02:30:37.471Z,99657.69
2022-08-10T02:33:05.576Z,99662.50
2022-08-10T02:35:54.396Z,99659.50
2022-08-10T02:38:58.064Z,99662.59
2022-08-10T02:45:12.115Z,99642.63
2022-08-10T02:45:20.714Z,99648.22
2022-08-10T02:47:04.365Z,99639.28
2022-08-10T02:49:36.988Z,99633.84
2022-08-10T02:52:09.109Z,99625.75
2022-08-10T02:54:43.118Z,99632.28
2022-08-10T02:57:16.447Z,99637.47
2022-08-10T02:59:52.568Z,99640.25
2022-08-10T03:02:25.560Z,99647.22
2022-08-10T03:04:58.168Z,99653.78
2022-08-10T03:07:42.908Z,99650.84
2022-08-10T03:10:17.371Z,99670.00
2022-08-10T03:12:45.531Z,99674.47
2022-08-10T03:15:15.961Z,99659.56
2022-08-10T03:17:57.866Z,99655.63
2022-08-10T03:20:36.805Z,99642.22
2022-08-10T03:23:09.718Z,99647.69
2022-08-10T03:25:37.560Z,99646.97
2022-08-10T03:28:04.989Z,99656.31
2022-08-10T03:30:33.406Z,99660.97
2022-08-10T03:33:03.971Z,99662.66
2022-08-10T03:35:30.795Z,99660.69
2022-08-10T03:38:00.181Z,99654.81
2022-08-10T03:40:44.929Z,99665.19
2022-08-10T03:43:15.729Z,99655.09
2022-08-10T03:45:55.390Z,99659.84
2022-08-10T03:48:44.772Z,99646.19
2022-08-10T03:51:11.869Z,99626.88
2022-08-10T03:54:04.281Z,99626.59
2022-08-10T03:56:29.943Z,99611.63
2022-08-10T03:58:58.793Z,99609.25
2022-08-10T04:02:43.824Z,99596.56
2022-08-10T04:04:16.519Z,99597.66
2022-08-10T04:06:47.313Z,99610.78
2022-08-10T04:09:17.864Z,99603.81
2022-08-10T04:11:44.577Z,99604.25
2022-08-10T04:14:47.356Z,99605.31
2022-08-10T04:16:57.547Z,99597.50
2022-08-10T04:19:27.192Z,99596.66
2022-08-10T04:22:18.316Z,99596.97
2022-08-10T04:24:48.271Z,99592.47
2022-08-10T04:27:15.622Z,99595.00
2022-08-10T04:29:43.149Z,99606.47
2022-08-10T04:32:11.051Z,99615.97
2022-08-10T04:34:42.735Z,99626.03
2022-08-10T04:37:10.894Z,99649.78
2022-08-10T04:39:37.979Z,99641.09
2022-08-10T04:42:05.049Z,99655.06
2022-08-10T04:44:31.976Z,99656.88
2022-08-10T04:46:59.430Z,99648.06
2022-08-10T04:49:55.117Z,99656.59
2022-08-10T04:52:13.963Z,99655.19
2022-08-10T04:54:40.468Z,99657.28
2022-08-10T04:57:09.018Z,99673.31
2022-08-10T04:59:35.540Z,99667.31
2022-08-10T05:02:22.744Z,99675.41
2022-08-10T05:04:48.637Z,99683.19
2022-08-10T05:07:18.204Z,99704.00
2022-08-10T05:10:01.383Z,99707.06
2022-08-10T05:12:35.939Z,99721.47
2022-08-10T05:15:12.115Z,99740.34
2022-08-10T05:17:39.588Z,99731.56
2022-08-10T05:20:08.607Z,99733.69
2022-08-10T05:22:40.723Z,99730.63
2022-08-10T05:25:10.702Z,99749.00
2022-08-10T05:27:37.276Z,99756.75
2022-08-10T05:30:05.342Z,99762.50
2022-08-10T05:32:56.252Z,99754.66
2022-08-10T05:35:21.249Z,99770.31
2022-08-10T05:38:09.731Z,99756.22
2022-08-10T05:40:37.698Z,99786.56
2022-08-10T05:43:07.697Z,99790.94
2022-08-10T05:45:34.490Z,99804.13
2022-08-10T05:48:40.662Z,99814.22
2022-08-10T05:51:09.007Z,99815.94
2022-08-10T05:54:01.059Z,99827.47
2022-08-10T05:56:23.190Z,99836.16
2022-08-10T05:58:49.636Z,99857.34
2022-08-10T06:01:18.817Z,99863.78
2022-08-10T06:03:53.111Z,99875.38
2022-08-10T06:06:24.786Z,99889.59
2022-08-10T06:08:53.792Z,99925.38
2022-08-10T06:12:26.527Z,99953.72
2022-08-10T06:14:29.182Z,99957.69
2022-08-10T06:16:58.727Z,99950.66
2022-08-10T06:19:26.172Z,99960.66
2022-08-10T06:22:01.319Z,99967.31
2022-08-10T06:24:36.338Z,99983.28
2022-08-10T06:27:02.771Z,99973.34
2022-08-10T06:29:32.051Z,99977.28
2022-08-10T06:32:00.715Z,99984.44
2022-08-10T06:34:31.866Z,99992.78
2022-08-10T06:37:03.952Z,100001.84
2022-08-10T06:39:35.390Z,100002.75
2022-08-10T06:42:17.588Z,100006.28
2022-08-10T06:44:57.712Z,100018.59
2022-08-10T06:47:31.100Z,100021.44
2022-08-10T06:50:01.705Z,100006.03
2022-08-10T06:52:33.087Z,100012.00
2022-08-10T06:55:01.358Z,100009.34
2022-08-10T06:57:34.115Z,100009.03
2022-08-10T07:00:04.245Z,100007.03
2022-08-10T07:02:42.772Z,100013.75
2022-08-10T07:05:17.391Z,100014.00
2022-08-10T07:07:45.745Z,100020.94
2022-08-10T07:10:16.342Z,100029.13
2022-08-10T07:12:44.451Z,100013.66
2022-08-10T07:15:13.034Z,100017.16
2022-08-10T07:17:40.743Z,100036.13
2022-08-10T07:20:09.972Z,100029.09
2022-08-10T07:23:50.721Z,100035.69
2022-08-10T07:25:26.639Z,100037.41
2022-08-10T07:27:58.589Z,100034.00
2022-08-10T07:30:28.935Z,100040.50
2022-08-10T07:32:57.202Z,100024.94
2022-08-10T07:35:25.753Z,100021.06
2022-08-10T07:37:54.237Z,100019.13
2022-08-10T07:40:22.883Z,100028.22
2022-08-10T07:42:53.866Z,100035.19
2022-08-10T07:45:20.756Z,100053.88
2022-08-10T07:48:05.132Z,100044.84
2022-08-10T07:50:37.297Z,100045.69
2022-08-10T07:53:07.314Z,100031.88
2022-08-10T07:56:01.701Z,100032.00
2022-08-10T07:58:27.678Z,100043.91
2022-08-10T08:00:56.351Z,100046.19
2022-08-10T08:03:25.501Z,100045.97
2022-08-10T08:05:58.389Z,100032.53
2022-08-10T08:08:32.154Z,100049.91
2022-08-10T08:11:00.321Z,100045.03
2022-08-10T08:13:29.548Z,100046.00
2022-08-10T08:16:18.096Z,100041.97
2022-08-10T08:19:16.375Z,100035.38
2022-08-10T08:24:06.698Z,100031.53
2022-08-10T08:24:32.526Z,100041.69
2022-08-10T08:27:02.910Z,100048.75
2022-08-10T08:29:34.194Z,100030.22
2022-08-10T08:32:03.872Z,100040.47
2022-08-10T08:34:34.701Z,100042.38
2022-08-10T08:37:04.746Z,100051.50
2022-08-10T08:39:37.502Z,100057.66
2022-08-10T08:42:32.248Z,100034.03
2022-08-10T08:45:27.980Z,100061.22
2022-08-10T08:48:24.164Z,100055.31
2022-08-10T08:52:06.308Z,100055.13
2022-08-10T08:54:17.172Z,100062.47
2022-08-10T08:57:03.129Z,100029.50
2022-08-10T09:00:00.952Z,100047.16
2022-08-10T09:02:33.814Z,100062.97
2022-08-10T09:05:28.440Z,100061.38
2022-08-10T09:08:30.005Z,100039.09
2022-08-10T09:11:29.945Z,100054.91
2022-08-10T09:14:11.653Z,100039.56
2022-08-10T09:16:47.699Z,100038.00
2022-08-10T09:19:38.382Z,100040.66
2022-08-10T09:22:29.819Z,100033.91
2022-08-10T09:25:25.059Z,100035.13
2022-08-10T09:28:03.758Z,100030.13
2022-08-10T09:31:10.868Z,100021.63
2022-08-10T09:36:25.754Z,100017.44
2022-08-10T09:36:52.084Z,100016.50
2022-08-10T09:40:58.213Z,100015.81
2022-08-10T09:42:49.743Z,100009.03
2022-08-10T09:45:58.199Z,100013.19
2022-08-10T09:48:35.639Z,100013.00
2022-08-10T09:54:21.382Z,99985.84
2022-08-10T09:57:44.352Z,99994.56
2022-08-10T10:00:12.639Z,99978.25
2022-08-10T10:03:01.567Z,99963.47
2022-08-10T10:05:53.013Z,99973.38
2022-08-10T10:08:28.492Z,99968.16
2022-08-10T10:11:27.246Z,99972.38
2022-08-10T10:14:08.167Z,99958.31
2022-08-10T10:16:55.399Z,99950.13
2022-08-10T10:19:51.991Z,99958.94
2022-08-10T10:22:41.932Z,99952.69
2022-08-10T10:25:51.050Z,99964.84
2022-08-10T10:29:11.500Z,99952.38
2022-08-10T10:31:27.076Z,99950.78
2022-08-10T10:34:17.623Z,99946.75
2022-08-10T10:36:45.786Z,99932.31
2022-08-10T10:39:23.793Z,99940.56
2022-08-10T10:42:11.746Z,99942.50
2022-08-10T10:45:16.317Z,99946.03
2022-08-10T10:48:07.099Z,99954.91
2022-08-10T10:50:58.964Z,99937.13
2022-08-10T10:53:37.858Z,99939.19
2022-08-10T10:56:20.378Z,99923.38
2022-08-10T10:58:53.049Z,99942.91
2022-08-10T11:01:22.703Z,99927.22
2022-08-10T11:04:27.650Z,99921.34
2022-08-10T11:07:28.456Z,99943.44
2022-08-10T11:10:05.451Z,99928.13
2022-08-10T11:12:51.013Z,99932.94
2022-08-10T11:15:32.806Z,99918.47
2022-08-10T11:18:14.390Z,99918.03
2022-08-10T11:21:01.001Z,99933.88
2022-08-10T11:24:49.017Z,99922.56
2022-08-10T11:26:48.933Z,99917.84
2022-08-10T11:29:29.479Z,99907.53
2022-08-10T11:32:03.146Z,99916.53
2022-08-10T11:34:47.213Z,99915.97
2022-08-10T11:38:32.211Z,99912.47
2022-08-10T11:40:45.091Z,99897.28
2022-08-10T11:43:21.181Z,99893.50
2022-08-10T11:45:55.563Z,99899.50
2022-08-10T11:48:52.898Z,99897.13
2022-08-10T11:51:58.873Z,99904.53
2022-08-10T11:54:54.707Z,99898.63
2022-08-10T11:57:52.930Z,99886.41
2022-08-10T12:00:16.326Z,99883.22
2022-08-10T12:03:01.682Z,99885.72
2022-08-10T12:05:51.878Z,99878.81
2022-08-10T12:10:04.848Z,99879.97
2022-08-10T12:11:24.759Z,99888.16
2022-08-10T12:14:22.788Z,99863.84
2022-08-10T12:17:05.006Z,99878.63
2022-08-10T12:20:02.758Z,99874.94
2022-08-10T12:22:36.237Z,99873.47
2022-08-10T12:25:08.625Z,99860.25
2022-08-10T12:27:50.521Z,99862.97
2022-08-10T12:30:19.703Z,99859.59
2022-08-10T12:33:03.105Z,99862.75
2022-08-10T12:36:16.759Z,99863.88
2022-08-10T12:38:49.966Z,99856.06
2022-08-10T12:41:43.628Z,99856.31
2022-08-10T12:44:11.850Z,99851.44
2022-08-10T12:46:57.388Z,99848.50
2022-08-10T12:49:37.194Z,99849.88
2022-08-10T12:52:29.445Z,99845.41
2022-08-10T12:54:59.301Z,99818.34
2022-08-10T12:57:26.904Z,99836.59
2022-08-10T12:59:58.185Z,99828.91
2022-08-10T13:02:31.216Z,99826.53
2022-08-10T13:05:01.450Z,99816.63
2022-08-10T13:08:24.122Z,99826.19
2022-08-10T13:10:21.310Z,99816.41
2022-08-10T13:12:50.952Z,99823.53
2022-08-10T13:15:47.753Z,99825.19
2022-08-10T13:18:18.079Z,99816.59
2022-08-10T13:20:51.435Z,99813.25
2022-08-10T13:23:23.775Z,99813.88
2022-08-10T13:25:52.212Z,99806.09
2022-08-10T13:28:36.893Z,99801.84
2022-08-10T13:31:16.662Z,99811.56
2022-08-10T13:34:40.107Z,99816.06
2022-08-10T13:36:41.568Z,99813.66
2022-08-10T13:39:09.020Z,99811.66
2022-08-10T13:41:39.868Z,99801.00
2022-08-10T13:44:09.635Z,99796.94
2022-08-10T13:46:40.459Z,99787.78
2022-08-10T13:49:09.470Z,99775.19
2022-08-10T13:51:53.885Z,99771.03
2022-08-10T13:54:27.545Z,99784.19
2022-08-10T13:56:55.476Z,99778.88
2022-08-10T14:00:35.865Z,99779.56
2022-08-10T14:02:21.504Z,99787.56
2022-08-10T14:04:48.008Z,99764.41
2022-08-10T14:07:16.882Z,99777.41
2022-08-10T14:09:47.469Z,99762.75
2022-08-10T14:12:15.315Z,99769.53
2022-08-10T14:14:45.202Z,99758.72
2022-08-10T14:17:22.108Z,99756.03
2022-08-10T14:19:51.568Z,99760.13
2022-08-10T14:22:33.557Z,99764.16
2022-08-10T14:25:12.832Z,99771.50
2022-08-10T14:28:02.216Z,99764.19
2022-08-10T14:30:31.890Z,99771.13
2022-08-10T14:33:04.132Z,99766.34
2022-08-10T14:36:22.642Z,99757.56
2022-08-10T14:38:26.636Z,99752.84
2022-08-10T14:40:56.125Z,99756.53
2022-08-10T14:43:29.153Z,99755.75
2022-08-10T14:46:01.393Z,99752.81
2022-08-10T14:48:33.088Z,99738.84
2022-08-10T14:51:02.823Z,99728.94
2022-08-10T14:53:34.645Z,99737.13
2022-08-10T14:56:06.284Z,99738.72
2022-08-10T14:58:59.391Z,99744.84
2022-08-10T15:01:26.752Z,99733.63
2022-08-10T15:04:15.592Z,99739.81
2022-08-10T15:06:53.855Z,99737.00
2022-08-10T15:09:23.981Z,99740.16
2022-08-10T15:12:13.274Z,99728.91
2022-08-10T15:14:45.819Z,99721.81
2022-08-10T15:17:16.311Z,99735.47
2022-08-10T15:20:04.770Z,99719.44
2022-08-10T15:22:38.354Z,99733.19
2022-08-10T15:25:18.928Z,99731.88
2022-08-10T15:27:56.867Z,99732.00
2022-08-10T15:30:31.119Z,99731.22
2022-08-10T15:33:21.332Z,99720.63
2022-08-10T15:36:26.929Z,99714.50
2022-08-10T15:38:59.788Z,99713.34
2022-08-10T15:42:00.862Z,99720.66
2022-08-10T15:44:56.708Z,99714.72
2022-08-10T15:47:25.784Z,99710.63
2022-08-10T15:50:06.771Z,99713.53
2022-08-10T15:53:01.726Z,99706.69
2022-08-10T15:55:44.247Z,99703.50
2022-08-10T15:58:38.943Z,99704.94
2022-08-10T16:02:13.899Z,99708.34
2022-08-10T16:04:35.386Z,99702.06
2022-08-10T16:07:10.590Z,99699.13
2022-08-10T16:10:23.920Z,99696.72
2022-08-10T16:12:42.279Z,99687.97
2022-08-10T16:15:16.723Z,99686.56
2022-08-10T16:17:57.069Z,99680.28
2022-08-10T16:20:52.409Z,99678.09
2022-08-10T16:23:36.512Z,99684.00
2022-08-10T16:26:14.906Z,99683.03
2022-08-10T16:28:49.904Z,99688.63
2022-08-10T16:31:20.464Z,99680.16
2022-08-10T16:33:54.265Z,99679.09
2022-08-10T16:36:28.954Z,99683.81
2022-08-10T16:38:56.529Z,99683.91
2022-08-10T16:42:03.488Z,99684.66
2022-08-10T16:44:16.834Z,99682.66
2022-08-10T16:46:45.259Z,99682.06
2022-08-10T16:49:18.206Z,99677.31
2022-08-10T16:51:48.007Z,99682.75
2022-08-10T16:54:22.417Z,99682.00
2022-08-10T16:56:53.063Z,99676.69
2022-08-10T16:59:24.620Z,99674.63
2022-08-10T17:01:53.962Z,99680.53
2022-08-10T17:04:23.273Z,99687.47
2022-08-10T17:07:03.786Z,99681.47
2022-08-10T17:09:33.566Z,99676.41
2022-08-10T17:12:05.907Z,99673.63
2022-08-10T17:14:32.530Z,99675.31
2022-08-10T17:17:37.224Z,99672.06
2022-08-10T17:20:30.450Z,99672.66
2022-08-10T17:23:01.234Z,99662.09
2022-08-10T17:25:45.677Z,99676.28
2022-08-10T17:28:33.046Z,99673.56
2022-08-10T17:31:18.954Z,99678.25
2022-08-10T17:34:03.487Z,99667.84
2022-08-10T17:36:36.631Z,99671.75
2022-08-10T17:39:05.107Z,99670.63
2022-08-10T17:41:35.477Z,99678.19
2022-08-10T17:44:04.849Z,99674.66
2022-08-10T17:46:40.504Z,99666.88
2022-08-10T17:49:09.221Z,99675.22
2022-08-10T17:51:38.173Z,99665.91
2022-08-10T17:54:09.092Z,99674.94
2022-08-10T17:56:37.837Z,99678.34
2022-08-10T17:59:16.793Z,99671.94
2022-08-10T18:02:01.746Z,99671.50
2022-08-10T18:04:35.554Z,99673.56
2022-08-10T18:07:10.024Z,99672.03
2022-08-10T18:09:42.089Z,99678.34
2022-08-10T18:12:17.815Z,99686.88
2022-08-10T18:14:48.306Z,99680.91
2022-08-10T18:17:20.342Z,99683.47
2022-08-10T18:19:53.062Z,99690.66
2022-08-10T18:22:22.608Z,99693.88
2022-08-10T18:24:50.645Z,99680.84
2022-08-10T18:27:18.760Z,99683.31
2022-08-10T18:29:50.460Z,99684.16
2022-08-10T18:32:20.159Z,99689.31
2022-08-10T18:34:48.494Z,99686.88
2022-08-10T18:37:21.076Z,99681.88
2022-08-10T18:39:49.777Z,99682.31
2022-08-10T18:42:21.358Z,99686.50
2022-08-10T18:44:59.787Z,99680.28
2022-08-10T18:47:33.610Z,99692.88
2022-08-10T18:50:14.272Z,99682.28
2022-08-10T18:52:44.300Z,99689.00
2022-08-10T18:55:23.114Z,99701.31
2022-08-10T18:58:02.072Z,99700.84
2022-08-10T19:00:46.627Z,99710.06
2022-08-10T19:03:54.334Z,99705.09
2022-08-10T19:06:53.031Z,99713.47
2022-08-10T19:09:45.629Z,99708.50
2022-08-10T19:12:36.382Z,99718.50
2022-08-10T19:15:16.261Z,99716.06
2022-08-10T19:18:05.603Z,99724.38
2022-08-10T19:20:43.676Z,99720.22
2022-08-10T19:23:33.105Z,99725.59
2022-08-10T19:26:44.557Z,99727.69
2022-08-10T19:30:08.605Z,99723.09
2022-08-10T19:32:45.367Z,99718.13
2022-08-10T19:36:04.671Z,99718.97
2022-08-10T19:38:33.149Z,99722.69
2022-08-10T19:41:10.607Z,99726.34
2022-08-10T19:44:14.950Z,99725.94
2022-08-10T19:46:53.825Z,99728.41
2022-08-10T19:49:40.068Z,99729.59
2022-08-10T19:52:19.887Z,99727.25
2022-08-10T19:55:15.174Z,99729.06
2022-08-10T19:57:51.026Z,99732.28
2022-08-10T20:00:24.192Z,99734.13
2022-08-10T20:03:15.495Z,99735.66
2022-08-10T20:06:18.718Z,99738.25
2022-08-10T20:08:47.267Z,99730.72
2022-08-10T20:11:46.406Z,99729.16
2022-08-10T20:14:23.014Z,99741.75
2022-08-10T20:16:53.457Z,99735.13
2022-08-10T20:19:53.995Z,99737.75
2022-08-10T20:22:29.132Z,99740.19
2022-08-10T20:25:06.503Z,99732.56
2022-08-10T20:27:57.813Z,99733.50
2022-08-10T20:30:31.442Z,99733.03
2022-08-10T20:33:17.203Z,99729.13
2022-08-10T20:35:48.509Z,99727.56
2022-08-10T20:38:27.450Z,99727.72
2022-08-10T20:41:24.427Z,99723.66
2022-08-10T20:44:09.638Z,99730.50
2022-08-10T20:46:42.576Z,99717.22
2022-08-10T20:49:36.099Z,99716.66
2022-08-10T20:52:06.636Z,99717.47
2022-08-10T20:54:38.290Z,99718.09
2022-08-10T20:57:55.281Z,99713.63
2022-08-10T21:00:23.248Z,99706.16
2022-08-10T21:03:06.685Z,99693.31
2022-08-10T21:06:03.039Z,99704.69
2022-08-10T21:09:04.407Z,99698.59
2022-08-10T21:11:59.038Z,99698.31
2022-08-10T21:14:43.479Z,99700.25
2022-08-10T21:17:52.670Z,99702.94
2022-08-10T21:20:54.283Z,99703.63
2022-08-10T21:23:30.613Z,99698.31
2022-08-10T21:26:08.786Z,99708.09
2022-08-10T21:28:57.232Z,99698.25
2022-08-10T21:31:52.974Z,99698.41
2022-08-10T21:34:40.487Z,99704.97
2022-08-10T21:37:26.561Z,99706.38
2022-08-10T21:40:34.519Z,99711.25
2022-08-10T21:43:50.077Z,99716.59
2022-08-10T21:46:54.620Z,99704.41
2022-08-10T21:49:52.543Z,99721.63
2022-08-10T21:52:53.652Z,99719.31
2022-08-10T21:55:59.679Z,99703.41
2022-08-10T21:58:56.010Z,99704.28
2022-08-10T22:01:53.034Z,99712.50
2022-08-10T22:04:40.146Z,99715.19
2022-08-10T22:07:33.524Z,99705.66
2022-08-10T22:10:25.647Z,99708.88
2022-08-10T22:13:21.144Z,99702.53
2022-08-10T22:16:12.152Z,99700.03
2022-08-10T22:19:14.873Z,99705.72
2022-08-10T22:22:06.640Z,99699.03
2022-08-10T22:25:19.631Z,99690.84
2022-08-10T22:28:13.626Z,99700.25
2022-08-10T22:31:31.150Z,99691.38
2022-08-10T22:34:42.782Z,99683.69
2022-08-10T22:38:10.616Z,99680.34
2022-08-10T22:40:56.178Z,99674.97
2022-08-10T22:43:46.480Z,99671.97
2022-08-10T22:46:45.511Z,99667.28
2022-08-10T22:49:12.274Z,99664.59
2022-08-10T22:51:57.809Z,99666.63
2022-08-10T22:55:08.519Z,99666.94
2022-08-10T22:57:54.415Z,99653.91
2022-08-10T23:00:30.930Z,99659.56
2022-08-10T23:03:06.680Z,99654.41
2022-08-10T23:05:53.357Z,99641.19
2022-08-10T23:08:30.841Z,99648.19
2022-08-10T23:11:04.519Z,99639.84
2022-08-10T23:13:36.314Z,99614.41
2022-08-10T23:16:44.896Z,99652.84
2022-08-10T23:19:24.464Z,99645.84
2022-08-10T23:22:12.874Z,99646.88
2022-08-10T23:24:51.595Z,99655.56
2022-08-10T23:27:38.808Z,99654.53
2022-08-10T23:30:17.480Z,99647.50
2022-08-10T23:32:59.712Z,99644.13
2022-08-10T23:36:30.876Z,99648.00
2022-08-10T23:38:20.225Z,99643.78
2022-08-10T23:40:49.534Z,99641.88
2022-08-10T23:44:00.422Z,99639.88
2022-08-10T23:46:22.251Z,99642.72
2022-08-10T23:48:54.390Z,99636.66
2022-08-10T23:51:38.643Z,99642.72
2022-08-10T23:54:20.864Z,99628.63
2022-08-10T23:56:54.166Z,99611.44
2022-08-10T23:59:25.204Z,99607.53
